sensor_id;sensor_type;location;lat;lon;timestamp;temperature;humidity
16823;DHT22;8528;49.976;11.858;2023-07-29T00:02:08;16.60;99.90
16823;DHT22;8528;49.976;11.858;2023-07-29T00:04:35;16.70;99.90
16823;DHT22;8528;49.976;11.858;2023-07-29T00:07:02;16.70;99.90
16823;DHT22;8528;49.976;11.858;2023-07-29T00:09:29;16.70;99.90
16823;DHT22;8528;49.976;11.858;2023-07-29T00:11:56;16.70;99.90
16823;DHT22;8528;49.976;11.858;2023-07-29T00:14:24;16.60;99.90
16823;DHT22;8528;49.976;11.858;2023-07-29T00:16:51;16.70;99.90
16823;DHT22;8528;49.976;11.858;2023-07-29T00:19:19;16.70;99.90
16823;DHT22;8528;49.976;11.858;2023-07-29T00:21:50;16.70;99.90
16823;DHT22;8528;49.976;11.858;2023-07-29T00:24:17;16.70;99.90
16823;DHT22;8528;49.976;11.858;2023-07-29T00:26:44;16.70;99.90
16823;DHT22;8528;49.976;11.858;2023-07-29T00:29:12;16.60;99.90
16823;DHT22;8528;49.976;11.858;2023-07-29T00:31:39;16.60;99.90
16823;DHT22;8528;49.976;11.858;2023-07-29T00:34:06;16.70;99.90
16823;DHT22;8528;49.976;11.858;2023-07-29T00:36:33;16.60;99.90
16823;DHT22;8528;49.976;11.858;2023-07-29T00:39:01;16.60;99.90
16823;DHT22;8528;49.976;11.858;2023-07-29T00:41:28;16.60;99.90
16823;DHT22;8528;49.976;11.858;2023-07-29T00:43:55;16.60;99.90
16823;DHT22;8528;49.976;11.858;2023-07-29T00:46:22;16.60;99.90
16823;DHT22;8528;49.976;11.858;2023-07-29T00:48:50;16.60;99.90
16823;DHT22;8528;49.976;11.858;2023-07-29T00:51:17;16.70;99.90
16823;DHT22;8528;49.976;11.858;2023-07-29T00:53:44;16.70;99.90
16823;DHT22;8528;49.976;11.858;2023-07-29T00:56:12;16.70;99.90
16823;DHT22;8528;49.976;11.858;2023-07-29T00:58:40;16.70;99.90
16823;DHT22;8528;49.976;11.858;2023-07-29T01:01:06;16.60;99.90
16823;DHT22;8528;49.976;11.858;2023-07-29T01:03:35;16.70;99.90
16823;DHT22;8528;49.976;11.858;2023-07-29T01:06:27;16.70;99.90
16823;DHT22;8528;49.976;11.858;2023-07-29T01:12:01;16.70;99.90
16823;DHT22;8528;49.976;11.858;2023-07-29T01:17:59;16.60;99.90
16823;DHT22;8528;49.976;11.858;2023-07-29T01:20:29;16.60;99.90
16823;DHT22;8528;49.976;11.858;2023-07-29T01:22:56;16.60;99.90
16823;DHT22;8528;49.976;11.858;2023-07-29T01:25:34;16.60;99.90
16823;DHT22;8528;49.976;11.858;2023-07-29T01:28:01;16.60;99.90
16823;DHT22;8528;49.976;11.858;2023-07-29T01:30:31;16.60;99.90
16823;DHT22;8528;49.976;11.858;2023-07-29T01:33:25;16.60;99.90
16823;DHT22;8528;49.976;11.858;2023-07-29T01:35:58;16.60;99.90
16823;DHT22;8528;49.976;11.858;2023-07-29T01:38:41;16.60;99.90
16823;DHT22;8528;49.976;11.858;2023-07-29T01:41:09;16.60;99.90
16823;DHT22;8528;49.976;11.858;2023-07-29T01:43:38;16.50;99.90
16823;DHT22;8528;49.976;11.858;2023-07-29T01:46:12;16.60;99.90
16823;DHT22;8528;49.976;11.858;2023-07-29T01:48:39;16.60;99.90
16823;DHT22;8528;49.976;11.858;2023-07-29T01:51:07;16.50;99.90
16823;DHT22;8528;49.976;11.858;2023-07-29T01:53:34;16.60;99.90
16823;DHT22;8528;49.976;11.858;2023-07-29T01:56:02;16.60;99.90
16823;DHT22;8528;49.976;11.858;2023-07-29T01:58:29;16.50;99.90
16823;DHT22;8528;49.976;11.858;2023-07-29T02:00:56;16.60;99.90
16823;DHT22;8528;49.976;11.858;2023-07-29T02:03:23;16.50;99.90
16823;DHT22;8528;49.976;11.858;2023-07-29T02:05:50;16.50;99.90
16823;DHT22;8528;49.976;11.858;2023-07-29T02:08:17;16.50;99.90
16823;DHT22;8528;49.976;11.858;2023-07-29T02:10:44;16.50;99.90
16823;DHT22;8528;49.976;11.858;2023-07-29T02:13:12;16.50;99.90
16823;DHT22;8528;49.976;11.858;2023-07-29T02:15:39;16.40;99.90
16823;DHT22;8528;49.976;11.858;2023-07-29T02:18:07;16.40;99.90
16823;DHT22;8528;49.976;11.858;2023-07-29T02:20:34;16.40;99.90
16823;DHT22;8528;49.976;11.858;2023-07-29T02:23:01;16.50;99.90
16823;DHT22;8528;49.976;11.858;2023-07-29T02:25:28;16.50;99.90
16823;DHT22;8528;49.976;11.858;2023-07-29T02:27:55;16.40;99.90
16823;DHT22;8528;49.976;11.858;2023-07-29T02:30:22;16.40;99.90
16823;DHT22;8528;49.976;11.858;2023-07-29T02:32:49;16.40;99.90
16823;DHT22;8528;49.976;11.858;2023-07-29T02:35:16;16.40;99.90
16823;DHT22;8528;49.976;11.858;2023-07-29T02:37:43;16.40;99.90
16823;DHT22;8528;49.976;11.858;2023-07-29T02:40:14;16.50;99.90
16823;DHT22;8528;49.976;11.858;2023-07-29T02:42:41;16.50;99.90
16823;DHT22;8528;49.976;11.858;2023-07-29T02:45:11;16.40;99.90
16823;DHT22;8528;49.976;11.858;2023-07-29T02:47:38;16.50;99.90
16823;DHT22;8528;49.976;11.858;2023-07-29T02:50:06;16.50;99.90
16823;DHT22;8528;49.976;11.858;2023-07-29T02:52:33;16.50;99.90
16823;DHT22;8528;49.976;11.858;2023-07-29T02:55:00;16.50;99.90
16823;DHT22;8528;49.976;11.858;2023-07-29T02:57:26;16.50;99.90
16823;DHT22;8528;49.976;11.858;2023-07-29T02:59:53;16.50;99.90
16823;DHT22;8528;49.976;11.858;2023-07-29T03:02:20;16.50;99.90
16823;DHT22;8528;49.976;11.858;2023-07-29T03:04:48;16.40;99.90
16823;DHT22;8528;49.976;11.858;2023-07-29T03:07:15;16.50;99.90
16823;DHT22;8528;49.976;11.858;2023-07-29T03:09:43;16.40;99.90
16823;DHT22;8528;49.976;11.858;2023-07-29T03:12:11;16.50;99.90
16823;DHT22;8528;49.976;11.858;2023-07-29T03:14:38;16.50;99.90
16823;DHT22;8528;49.976;11.858;2023-07-29T03:17:05;16.50;99.90
16823;DHT22;8528;49.976;11.858;2023-07-29T03:19:32;16.50;99.90
16823;DHT22;8528;49.976;11.858;2023-07-29T03:22:04;16.40;99.90
16823;DHT22;8528;49.976;11.858;2023-07-29T03:24:31;16.50;99.90
16823;DHT22;8528;49.976;11.858;2023-07-29T03:26:58;16.50;99.90
16823;DHT22;8528;49.976;11.858;2023-07-29T03:29:25;16.50;99.90
16823;DHT22;8528;49.976;11.858;2023-07-29T03:31:52;16.40;99.90
16823;DHT22;8528;49.976;11.858;2023-07-29T03:34:19;16.50;99.90
16823;DHT22;8528;49.976;11.858;2023-07-29T03:36:46;16.50;99.90
16823;DHT22;8528;49.976;11.858;2023-07-29T03:39:16;16.60;99.90
16823;DHT22;8528;49.976;11.858;2023-07-29T03:41:43;16.50;99.90
16823;DHT22;8528;49.976;11.858;2023-07-29T03:44:10;16.50;99.90
16823;DHT22;8528;49.976;11.858;2023-07-29T03:46:37;16.40;99.90
16823;DHT22;8528;49.976;11.858;2023-07-29T03:49:05;16.40;99.90
16823;DHT22;8528;49.976;11.858;2023-07-29T03:51:33;16.40;99.90
16823;DHT22;8528;49.976;11.858;2023-07-29T03:54:01;16.30;99.90
16823;DHT22;8528;49.976;11.858;2023-07-29T03:56:29;16.40;99.90
16823;DHT22;8528;49.976;11.858;2023-07-29T03:59:26;16.30;99.90
16823;DHT22;8528;49.976;11.858;2023-07-29T04:01:56;16.30;99.90
16823;DHT22;8528;49.976;11.858;2023-07-29T04:04:26;16.30;99.90
16823;DHT22;8528;49.976;11.858;2023-07-29T04:06:55;16.30;99.90
16823;DHT22;8528;49.976;11.858;2023-07-29T04:09:22;16.40;99.90
16823;DHT22;8528;49.976;11.858;2023-07-29T04:11:51;16.40;99.90
16823;DHT22;8528;49.976;11.858;2023-07-29T04:14:18;16.50;99.90
16823;DHT22;8528;49.976;11.858;2023-07-29T04:16:45;16.50;99.90
16823;DHT22;8528;49.976;11.858;2023-07-29T04:19:15;16.60;99.90
16823;DHT22;8528;49.976;11.858;2023-07-29T04:21:42;16.60;99.90
16823;DHT22;8528;49.976;11.858;2023-07-29T04:24:09;16.60;99.90
16823;DHT22;8528;49.976;11.858;2023-07-29T04:26:36;16.60;99.90
16823;DHT22;8528;49.976;11.858;2023-07-29T04:29:06;16.60;99.90
16823;DHT22;8528;49.976;11.858;2023-07-29T04:31:33;16.60;99.90
16823;DHT22;8528;49.976;11.858;2023-07-29T04:34:01;16.60;99.90
16823;DHT22;8528;49.976;11.858;2023-07-29T04:36:29;16.70;99.90
16823;DHT22;8528;49.976;11.858;2023-07-29T04:38:58;16.70;99.90
16823;DHT22;8528;49.976;11.858;2023-07-29T04:41:25;16.70;99.90
16823;DHT22;8528;49.976;11.858;2023-07-29T04:43:52;16.70;99.90
16823;DHT22;8528;49.976;11.858;2023-07-29T04:46:19;16.70;99.90
16823;DHT22;8528;49.976;11.858;2023-07-29T04:48:46;16.80;99.90
16823;DHT22;8528;49.976;11.858;2023-07-29T04:51:13;16.70;99.90
16823;DHT22;8528;49.976;11.858;2023-07-29T04:53:40;16.80;99.90
16823;DHT22;8528;49.976;11.858;2023-07-29T04:56:07;16.80;99.90
16823;DHT22;8528;49.976;11.858;2023-07-29T04:58:34;16.90;99.90
16823;DHT22;8528;49.976;11.858;2023-07-29T05:01:26;17.10;99.90
16823;DHT22;8528;49.976;11.858;2023-07-29T05:03:53;17.10;99.90
16823;DHT22;8528;49.976;11.858;2023-07-29T05:06:21;17.20;99.90
16823;DHT22;8528;49.976;11.858;2023-07-29T05:08:50;17.20;99.90
16823;DHT22;8528;49.976;11.858;2023-07-29T05:11:17;17.20;99.90
16823;DHT22;8528;49.976;11.858;2023-07-29T05:13:44;17.20;99.90
16823;DHT22;8528;49.976;11.858;2023-07-29T05:16:11;17.30;99.90
16823;DHT22;8528;49.976;11.858;2023-07-29T05:18:38;17.30;99.90
16823;DHT22;8528;49.976;11.858;2023-07-29T05:21:06;17.20;99.90
16823;DHT22;8528;49.976;11.858;2023-07-29T05:23:33;17.20;99.90
16823;DHT22;8528;49.976;11.858;2023-07-29T05:26:01;17.20;99.90
16823;DHT22;8528;49.976;11.858;2023-07-29T05:28:28;17.30;99.90
16823;DHT22;8528;49.976;11.858;2023-07-29T05:31:01;17.30;99.90
16823;DHT22;8528;49.976;11.858;2023-07-29T05:33:29;17.30;99.90
16823;DHT22;8528;49.976;11.858;2023-07-29T05:35:56;17.40;99.90
16823;DHT22;8528;49.976;11.858;2023-07-29T05:38:23;17.50;99.90
16823;DHT22;8528;49.976;11.858;2023-07-29T05:40:50;17.70;99.90
16823;DHT22;8528;49.976;11.858;2023-07-29T05:43:17;18.00;99.90
16823;DHT22;8528;49.976;11.858;2023-07-29T05:45:44;18.20;99.90
16823;DHT22;8528;49.976;11.858;2023-07-29T05:48:11;18.30;99.90
16823;DHT22;8528;49.976;11.858;2023-07-29T05:50:38;18.20;99.90
16823;DHT22;8528;49.976;11.858;2023-07-29T05:53:05;18.30;99.90
16823;DHT22;8528;49.976;11.858;2023-07-29T05:55:32;18.20;99.90
16823;DHT22;8528;49.976;11.858;2023-07-29T05:57:59;18.10;99.90
16823;DHT22;8528;49.976;11.858;2023-07-29T06:00:27;18.20;99.90
16823;DHT22;8528;49.976;11.858;2023-07-29T06:02:55;18.20;99.90
16823;DHT22;8528;49.976;11.858;2023-07-29T06:05:22;18.40;99.90
16823;DHT22;8528;49.976;11.858;2023-07-29T06:07:49;18.60;99.90
16823;DHT22;8528;49.976;11.858;2023-07-29T06:10:16;18.70;99.90
16823;DHT22;8528;49.976;11.858;2023-07-29T06:12:48;18.70;99.90
16823;DHT22;8528;49.976;11.858;2023-07-29T06:15:15;18.50;99.90
16823;DHT22;8528;49.976;11.858;2023-07-29T06:17:42;18.50;99.90
16823;DHT22;8528;49.976;11.858;2023-07-29T06:20:10;18.40;99.90
16823;DHT22;8528;49.976;11.858;2023-07-29T06:22:37;18.30;99.90
16823;DHT22;8528;49.976;11.858;2023-07-29T06:25:04;18.40;99.90
16823;DHT22;8528;49.976;11.858;2023-07-29T06:27:31;18.50;99.90
16823;DHT22;8528;49.976;11.858;2023-07-29T06:29:58;18.60;99.90
16823;DHT22;8528;49.976;11.858;2023-07-29T06:32:25;18.70;99.90
16823;DHT22;8528;49.976;11.858;2023-07-29T06:34:52;18.80;99.90
16823;DHT22;8528;49.976;11.858;2023-07-29T06:37:27;18.80;99.90
16823;DHT22;8528;49.976;11.858;2023-07-29T06:39:54;18.90;99.90
16823;DHT22;8528;49.976;11.858;2023-07-29T06:42:21;19.00;99.90
16823;DHT22;8528;49.976;11.858;2023-07-29T06:44:48;19.20;99.90
16823;DHT22;8528;49.976;11.858;2023-07-29T06:47:15;19.30;99.90
16823;DHT22;8528;49.976;11.858;2023-07-29T06:49:42;19.50;99.90
16823;DHT22;8528;49.976;11.858;2023-07-29T06:52:09;19.60;99.90
16823;DHT22;8528;49.976;11.858;2023-07-29T06:54:36;19.70;99.90
16823;DHT22;8528;49.976;11.858;2023-07-29T06:57:04;20.00;99.90
16823;DHT22;8528;49.976;11.858;2023-07-29T06:59:30;20.10;99.90
16823;DHT22;8528;49.976;11.858;2023-07-29T07:01:57;20.10;99.90
16823;DHT22;8528;49.976;11.858;2023-07-29T07:04:26;20.00;99.90
16823;DHT22;8528;49.976;11.858;2023-07-29T07:06:54;20.10;99.90
16823;DHT22;8528;49.976;11.858;2023-07-29T07:09:21;20.10;99.90
16823;DHT22;8528;49.976;11.858;2023-07-29T07:11:48;20.20;99.90
16823;DHT22;8528;49.976;11.858;2023-07-29T07:14:15;20.20;99.90
16823;DHT22;8528;49.976;11.858;2023-07-29T07:16:42;20.20;99.90
16823;DHT22;8528;49.976;11.858;2023-07-29T07:19:09;20.30;99.90
16823;DHT22;8528;49.976;11.858;2023-07-29T07:21:36;20.10;99.90
16823;DHT22;8528;49.976;11.858;2023-07-29T07:24:03;19.90;99.90
16823;DHT22;8528;49.976;11.858;2023-07-29T07:26:30;19.70;99.90
16823;DHT22;8528;49.976;11.858;2023-07-29T07:28:57;19.50;99.90
16823;DHT22;8528;49.976;11.858;2023-07-29T07:31:24;19.40;99.90
16823;DHT22;8528;49.976;11.858;2023-07-29T07:33:51;19.40;99.90
16823;DHT22;8528;49.976;11.858;2023-07-29T07:36:19;19.30;99.90
16823;DHT22;8528;49.976;11.858;2023-07-29T07:38:46;19.20;99.90
16823;DHT22;8528;49.976;11.858;2023-07-29T07:41:13;18.90;99.90
16823;DHT22;8528;49.976;11.858;2023-07-29T07:43:40;18.50;99.90
16823;DHT22;8528;49.976;11.858;2023-07-29T07:46:10;18.20;99.90
16823;DHT22;8528;49.976;11.858;2023-07-29T07:48:38;18.00;99.90
16823;DHT22;8528;49.976;11.858;2023-07-29T07:51:12;17.70;99.90
16823;DHT22;8528;49.976;11.858;2023-07-29T07:53:40;17.50;99.90
16823;DHT22;8528;49.976;11.858;2023-07-29T07:56:07;17.20;99.90
16823;DHT22;8528;49.976;11.858;2023-07-29T07:58:34;17.20;99.90
16823;DHT22;8528;49.976;11.858;2023-07-29T08:01:06;17.10;99.90
16823;DHT22;8528;49.976;11.858;2023-07-29T08:03:35;17.00;99.90
16823;DHT22;8528;49.976;11.858;2023-07-29T08:06:04;17.00;99.90
16823;DHT22;8528;49.976;11.858;2023-07-29T08:08:34;17.10;99.90
16823;DHT22;8528;49.976;11.858;2023-07-29T08:11:01;17.10;99.90
16823;DHT22;8528;49.976;11.858;2023-07-29T08:13:28;17.00;99.90
16823;DHT22;8528;49.976;11.858;2023-07-29T08:15:55;17.00;99.90
16823;DHT22;8528;49.976;11.858;2023-07-29T08:18:22;17.00;99.90
16823;DHT22;8528;49.976;11.858;2023-07-29T08:20:58;16.80;99.90
16823;DHT22;8528;49.976;11.858;2023-07-29T08:23:26;16.80;99.90
16823;DHT22;8528;49.976;11.858;2023-07-29T08:25:58;16.80;99.90
16823;DHT22;8528;49.976;11.858;2023-07-29T08:28:30;16.70;99.90
16823;DHT22;8528;49.976;11.858;2023-07-29T08:30:58;16.80;99.90
16823;DHT22;8528;49.976;11.858;2023-07-29T08:33:26;16.80;99.90
16823;DHT22;8528;49.976;11.858;2023-07-29T08:35:53;16.80;99.90
16823;DHT22;8528;49.976;11.858;2023-07-29T08:38:21;16.80;99.90
16823;DHT22;8528;49.976;11.858;2023-07-29T08:41:19;16.90;99.90
16823;DHT22;8528;49.976;11.858;2023-07-29T08:46:25;17.20;99.90
16823;DHT22;8528;49.976;11.858;2023-07-29T08:48:55;17.30;99.90
16823;DHT22;8528;49.976;11.858;2023-07-29T08:51:23;17.30;99.90
16823;DHT22;8528;49.976;11.858;2023-07-29T08:53:53;17.30;99.90
16823;DHT22;8528;49.976;11.858;2023-07-29T08:56:23;17.20;99.90
16823;DHT22;8528;49.976;11.858;2023-07-29T08:58:51;17.10;99.90
16823;DHT22;8528;49.976;11.858;2023-07-29T09:01:18;17.10;99.90
16823;DHT22;8528;49.976;11.858;2023-07-29T09:03:45;17.00;99.90
16823;DHT22;8528;49.976;11.858;2023-07-29T09:06:14;17.00;99.90
16823;DHT22;8528;49.976;11.858;2023-07-29T09:08:41;17.00;99.90
16823;DHT22;8528;49.976;11.858;2023-07-29T09:11:08;17.10;99.90
16823;DHT22;8528;49.976;11.858;2023-07-29T09:13:36;17.10;99.90
16823;DHT22;8528;49.976;11.858;2023-07-29T09:16:04;17.20;99.90
16823;DHT22;8528;49.976;11.858;2023-07-29T09:18:31;17.20;99.90
16823;DHT22;8528;49.976;11.858;2023-07-29T09:20:59;17.30;99.90
16823;DHT22;8528;49.976;11.858;2023-07-29T09:23:27;17.40;99.90
16823;DHT22;8528;49.976;11.858;2023-07-29T09:26:01;17.50;99.90
16823;DHT22;8528;49.976;11.858;2023-07-29T09:28:37;17.50;99.90
16823;DHT22;8528;49.976;11.858;2023-07-29T09:31:06;17.50;99.90
16823;DHT22;8528;49.976;11.858;2023-07-29T09:33:35;17.50;99.90
16823;DHT22;8528;49.976;11.858;2023-07-29T09:36:09;17.40;99.90
16823;DHT22;8528;49.976;11.858;2023-07-29T09:38:44;17.30;99.90
16823;DHT22;8528;49.976;11.858;2023-07-29T09:41:15;17.30;99.90
16823;DHT22;8528;49.976;11.858;2023-07-29T09:43:42;17.20;99.90
16823;DHT22;8528;49.976;11.858;2023-07-29T09:46:09;17.20;99.90
16823;DHT22;8528;49.976;11.858;2023-07-29T09:48:37;17.20;99.90
16823;DHT22;8528;49.976;11.858;2023-07-29T09:51:15;17.30;99.90
16823;DHT22;8528;49.976;11.858;2023-07-29T09:53:43;17.30;99.90
16823;DHT22;8528;49.976;11.858;2023-07-29T09:56:14;17.20;99.90
16823;DHT22;8528;49.976;11.858;2023-07-29T09:58:45;17.20;99.90
16823;DHT22;8528;49.976;11.858;2023-07-29T10:01:13;17.30;99.90
16823;DHT22;8528;49.976;11.858;2023-07-29T10:03:40;17.40;99.90
16823;DHT22;8528;49.976;11.858;2023-07-29T10:06:08;17.50;99.90
16823;DHT22;8528;49.976;11.858;2023-07-29T10:08:37;17.50;99.90
16823;DHT22;8528;49.976;11.858;2023-07-29T10:11:07;17.60;99.90
16823;DHT22;8528;49.976;11.858;2023-07-29T10:13:35;17.80;99.90
16823;DHT22;8528;49.976;11.858;2023-07-29T10:16:04;18.20;99.90
16823;DHT22;8528;49.976;11.858;2023-07-29T10:18:32;18.40;99.90
16823;DHT22;8528;49.976;11.858;2023-07-29T10:21:00;18.80;99.90
16823;DHT22;8528;49.976;11.858;2023-07-29T10:23:38;19.50;99.90
16823;DHT22;8528;49.976;11.858;2023-07-29T10:26:10;20.20;99.90
16823;DHT22;8528;49.976;11.858;2023-07-29T10:28:41;20.80;99.90
16823;DHT22;8528;49.976;11.858;2023-07-29T10:31:08;21.30;99.90
16823;DHT22;8528;49.976;11.858;2023-07-29T10:33:36;21.60;99.90
16823;DHT22;8528;49.976;11.858;2023-07-29T10:36:05;21.10;99.90
16823;DHT22;8528;49.976;11.858;2023-07-29T10:38:33;20.50;99.90
16823;DHT22;8528;49.976;11.858;2023-07-29T10:41:00;19.80;99.90
16823;DHT22;8528;49.976;11.858;2023-07-29T10:43:37;19.30;99.90
16823;DHT22;8528;49.976;11.858;2023-07-29T10:46:17;18.80;99.90
16823;DHT22;8528;49.976;11.858;2023-07-29T10:48:56;18.70;99.90
16823;DHT22;8528;49.976;11.858;2023-07-29T10:51:30;18.60;99.90
16823;DHT22;8528;49.976;11.858;2023-07-29T10:54:12;18.50;99.90
16823;DHT22;8528;49.976;11.858;2023-07-29T10:56:42;18.50;99.90
16823;DHT22;8528;49.976;11.858;2023-07-29T11:01:42;18.60;99.90
16823;DHT22;8528;49.976;11.858;2023-07-29T11:09:40;19.30;99.90
16823;DHT22;8528;49.976;11.858;2023-07-29T11:12:49;19.90;99.90
16823;DHT22;8528;49.976;11.858;2023-07-29T11:15:31;20.20;99.90
16823;DHT22;8528;49.976;11.858;2023-07-29T11:18:00;20.70;99.90
16823;DHT22;8528;49.976;11.858;2023-07-29T11:20:33;21.60;99.90
16823;DHT22;8528;49.976;11.858;2023-07-29T11:23:02;22.20;99.90
16823;DHT22;8528;49.976;11.858;2023-07-29T11:25:30;22.50;99.90
16823;DHT22;8528;49.976;11.858;2023-07-29T11:28:00;22.40;99.90
16823;DHT22;8528;49.976;11.858;2023-07-29T11:30:32;22.00;99.90
16823;DHT22;8528;49.976;11.858;2023-07-29T11:33:02;21.30;99.90
16823;DHT22;8528;49.976;11.858;2023-07-29T11:35:29;21.00;99.90
16823;DHT22;8528;49.976;11.858;2023-07-29T11:38:00;21.20;99.90
16823;DHT22;8528;49.976;11.858;2023-07-29T11:40:27;21.30;99.90
16823;DHT22;8528;49.976;11.858;2023-07-29T11:42:57;21.20;99.90
16823;DHT22;8528;49.976;11.858;2023-07-29T11:45:33;21.20;99.90
16823;DHT22;8528;49.976;11.858;2023-07-29T11:48:17;21.00;99.90
16823;DHT22;8528;49.976;11.858;2023-07-29T11:50:46;20.90;99.90
16823;DHT22;8528;49.976;11.858;2023-07-29T11:53:15;21.20;99.90
16823;DHT22;8528;49.976;11.858;2023-07-29T11:55:43;22.20;99.90
16823;DHT22;8528;49.976;11.858;2023-07-29T11:58:11;23.20;99.90
16823;DHT22;8528;49.976;11.858;2023-07-29T12:00:38;25.00;99.90
16823;DHT22;8528;49.976;11.858;2023-07-29T12:03:06;26.50;99.90
16823;DHT22;8528;49.976;11.858;2023-07-29T12:05:37;27.90;99.90
16823;DHT22;8528;49.976;11.858;2023-07-29T12:08:05;29.30;99.90
16823;DHT22;8528;49.976;11.858;2023-07-29T12:10:32;30.10;98.40
16823;DHT22;8528;49.976;11.858;2023-07-29T12:13:02;30.60;97.40
16823;DHT22;8528;49.976;11.858;2023-07-29T12:15:30;31.00;95.70
16823;DHT22;8528;49.976;11.858;2023-07-29T12:18:01;30.60;92.30
16823;DHT22;8528;49.976;11.858;2023-07-29T12:20:29;29.90;95.20
16823;DHT22;8528;49.976;11.858;2023-07-29T12:22:59;29.00;96.00
16823;DHT22;8528;49.976;11.858;2023-07-29T12:25:28;28.10;97.60
16823;DHT22;8528;49.976;11.858;2023-07-29T12:28:05;27.70;98.00
16823;DHT22;8528;49.976;11.858;2023-07-29T12:30:42;27.10;99.90
16823;DHT22;8528;49.976;11.858;2023-07-29T12:33:09;27.30;99.90
16823;DHT22;8528;49.976;11.858;2023-07-29T12:35:37;27.30;99.90
16823;DHT22;8528;49.976;11.858;2023-07-29T12:38:05;27.30;99.60
16823;DHT22;8528;49.976;11.858;2023-07-29T12:40:32;26.50;99.70
16823;DHT22;8528;49.976;11.858;2023-07-29T12:42:59;25.40;99.90
16823;DHT22;8528;49.976;11.858;2023-07-29T12:45:27;24.80;99.90
16823;DHT22;8528;49.976;11.858;2023-07-29T12:47:56;24.50;99.90
16823;DHT22;8528;49.976;11.858;2023-07-29T12:50:32;24.10;99.90
16823;DHT22;8528;49.976;11.858;2023-07-29T12:52:59;23.70;99.90
16823;DHT22;8528;49.976;11.858;2023-07-29T12:55:26;23.60;99.90
16823;DHT22;8528;49.976;11.858;2023-07-29T12:57:53;23.30;99.90
16823;DHT22;8528;49.976;11.858;2023-07-29T13:00:21;23.00;99.90
16823;DHT22;8528;49.976;11.858;2023-07-29T13:02:54;22.70;99.90
16823;DHT22;8528;49.976;11.858;2023-07-29T13:05:22;22.40;99.90
16823;DHT22;8528;49.976;11.858;2023-07-29T13:07:49;22.20;99.90
16823;DHT22;8528;49.976;11.858;2023-07-29T13:10:38;21.90;99.90
16823;DHT22;8528;49.976;11.858;2023-07-29T13:13:05;21.60;99.90
16823;DHT22;8528;49.976;11.858;2023-07-29T13:15:33;21.30;99.90
16823;DHT22;8528;49.976;11.858;2023-07-29T13:17:59;20.90;99.90
16823;DHT22;8528;49.976;11.858;2023-07-29T13:20:26;20.60;99.90
16823;DHT22;8528;49.976;11.858;2023-07-29T13:22:54;20.30;99.90
16823;DHT22;8528;49.976;11.858;2023-07-29T13:25:22;20.20;99.90
16823;DHT22;8528;49.976;11.858;2023-07-29T13:27:48;20.20;99.90
16823;DHT22;8528;49.976;11.858;2023-07-29T13:30:15;20.30;99.90
16823;DHT22;8528;49.976;11.858;2023-07-29T13:32:44;20.40;99.90
16823;DHT22;8528;49.976;11.858;2023-07-29T13:35:11;20.60;99.90
16823;DHT22;8528;49.976;11.858;2023-07-29T13:37:38;20.70;99.90
16823;DHT22;8528;49.976;11.858;2023-07-29T13:40:06;20.70;99.90
16823;DHT22;8528;49.976;11.858;2023-07-29T13:42:33;20.70;99.90
16823;DHT22;8528;49.976;11.858;2023-07-29T13:45:01;20.80;99.90
16823;DHT22;8528;49.976;11.858;2023-07-29T13:47:28;21.20;99.90
16823;DHT22;8528;49.976;11.858;2023-07-29T13:49:55;21.50;99.90
16823;DHT22;8528;49.976;11.858;2023-07-29T13:52:22;21.70;99.90
16823;DHT22;8528;49.976;11.858;2023-07-29T13:54:49;21.70;99.90
16823;DHT22;8528;49.976;11.858;2023-07-29T13:57:16;21.90;99.90
16823;DHT22;8528;49.976;11.858;2023-07-29T13:59:45;21.90;99.90
16823;DHT22;8528;49.976;11.858;2023-07-29T14:02:13;22.10;99.90
16823;DHT22;8528;49.976;11.858;2023-07-29T14:04:40;22.10;99.90
16823;DHT22;8528;49.976;11.858;2023-07-29T14:07:07;22.10;99.90
16823;DHT22;8528;49.976;11.858;2023-07-29T14:09:34;22.00;99.90
16823;DHT22;8528;49.976;11.858;2023-07-29T14:12:01;22.10;99.90
16823;DHT22;8528;49.976;11.858;2023-07-29T14:14:31;22.20;99.90
16823;DHT22;8528;49.976;11.858;2023-07-29T14:16:58;22.00;99.90
16823;DHT22;8528;49.976;11.858;2023-07-29T14:19:25;21.80;99.90
16823;DHT22;8528;49.976;11.858;2023-07-29T14:21:52;21.70;99.90
16823;DHT22;8528;49.976;11.858;2023-07-29T14:24:19;21.60;99.90
16823;DHT22;8528;49.976;11.858;2023-07-29T14:26:46;21.70;99.90
16823;DHT22;8528;49.976;11.858;2023-07-29T14:29:13;21.80;99.90
16823;DHT22;8528;49.976;11.858;2023-07-29T14:31:40;22.00;99.90
16823;DHT22;8528;49.976;11.858;2023-07-29T14:34:09;22.00;99.90
16823;DHT22;8528;49.976;11.858;2023-07-29T14:36:36;22.10;99.90
16823;DHT22;8528;49.976;11.858;2023-07-29T14:39:05;22.20;99.90
16823;DHT22;8528;49.976;11.858;2023-07-29T14:41:32;22.10;99.90
16823;DHT22;8528;49.976;11.858;2023-07-29T14:43:59;21.90;99.90
16823;DHT22;8528;49.976;11.858;2023-07-29T14:46:26;21.80;99.90
16823;DHT22;8528;49.976;11.858;2023-07-29T14:48:54;21.60;99.90
16823;DHT22;8528;49.976;11.858;2023-07-29T14:51:20;21.50;99.90
16823;DHT22;8528;49.976;11.858;2023-07-29T14:53:48;21.30;99.90
16823;DHT22;8528;49.976;11.858;2023-07-29T14:56:14;21.00;99.90
16823;DHT22;8528;49.976;11.858;2023-07-29T14:58:58;20.80;99.90
16823;DHT22;8528;49.976;11.858;2023-07-29T15:01:25;20.60;99.90
16823;DHT22;8528;49.976;11.858;2023-07-29T15:03:53;20.40;99.90
16823;DHT22;8528;49.976;11.858;2023-07-29T15:06:20;20.30;99.90
16823;DHT22;8528;49.976;11.858;2023-07-29T15:08:54;20.10;99.90
16823;DHT22;8528;49.976;11.858;2023-07-29T15:11:20;20.00;99.90
16823;DHT22;8528;49.976;11.858;2023-07-29T15:13:48;20.00;99.90
16823;DHT22;8528;49.976;11.858;2023-07-29T15:16:14;20.20;99.90
16823;DHT22;8528;49.976;11.858;2023-07-29T15:19:03;20.40;99.90
16823;DHT22;8528;49.976;11.858;2023-07-29T15:21:32;20.50;99.90
16823;DHT22;8528;49.976;11.858;2023-07-29T15:24:00;20.40;99.90
16823;DHT22;8528;49.976;11.858;2023-07-29T15:26:27;20.30;99.90
16823;DHT22;8528;49.976;11.858;2023-07-29T15:28:59;20.30;99.90
16823;DHT22;8528;49.976;11.858;2023-07-29T15:31:26;20.30;99.90
16823;DHT22;8528;49.976;11.858;2023-07-29T15:33:54;20.30;99.90
16823;DHT22;8528;49.976;11.858;2023-07-29T15:36:20;20.40;99.90
16823;DHT22;8528;49.976;11.858;2023-07-29T15:38:47;20.40;99.90
16823;DHT22;8528;49.976;11.858;2023-07-29T15:41:15;20.40;99.90
16823;DHT22;8528;49.976;11.858;2023-07-29T15:43:41;20.30;99.90
16823;DHT22;8528;49.976;11.858;2023-07-29T15:53:44;20.20;99.90
16823;DHT22;8528;49.976;11.858;2023-07-29T15:56:11;20.10;99.90
16823;DHT22;8528;49.976;11.858;2023-07-29T15:58:38;20.10;99.90
16823;DHT22;8528;49.976;11.858;2023-07-29T16:01:07;20.00;99.90
16823;DHT22;8528;49.976;11.858;2023-07-29T16:03:34;20.00;99.90
16823;DHT22;8528;49.976;11.858;2023-07-29T16:06:01;20.00;99.90